Time,TemperatureF,DewpointF,PressureIn,WindDirection,WindDirectionDegrees,WindSpeedMPH,WindSpeedGustMPH,Humidity,HourlyPrecipIn,Conditions,Clouds,dailyrainin,SoftwareType,DateUTC
2013-07-07 00:01:00,70.0,65.0,-100.00,SE,125,0.0,0.0,84,-99.99,,,-99.99,,2013-07-07 05:01:00,
2013-07-07 00:11:00,69.0,65.0,-100.00,SE,125,0.0,0.0,86,-99.99,,,-99.99,,2013-07-07 05:11:00,
2013-07-07 00:21:00,69.0,65.0,-100.00,SE,125,0.0,0.0,86,-99.99,,,-99.99,,2013-07-07 05:21:00,
2013-07-07 00:31:00,69.0,65.0,-100.00,SSE,150,0.0,0.0,86,-99.99,,,-99.99,,2013-07-07 05:31:00,
2013-07-07 00:41:00,68.0,65.0,-100.00,ESE,115,0.0,0.0,90,-99.99,,,-99.99,,2013-07-07 05:41:00,
2013-07-07 00:51:00,68.0,65.0,-100.00,ESE,115,0.0,0.0,90,-99.99,,,-99.99,,2013-07-07 05:51:00,
2013-07-07 01:01:00,67.0,65.0,-100.00,ESE,115,0.0,0.0,91,-99.99,,,-99.99,,2013-07-07 06:01:00,
2013-07-07 01:11:00,68.0,65.0,-100.00,SSE,160,0.0,0.0,90,-99.99,,,-99.99,,2013-07-07 06:11:00,
2013-07-07 01:21:00,68.0,65.0,-100.00,SSE,160,0.0,0.0,90,-99.99,,,-99.99,,2013-07-07 06:21:00,
2013-07-07 01:43:00,68.0,64.0,-100.00,SSE,160,0.0,0.0,85,-99.99,,,-99.99,,2013-07-07 06:43:00,
2013-07-07 01:52:00,68.0,64.0,-100.00,SSE,160,0.0,0.0,85,-99.99,,,-99.99,,2013-07-07 06:52:00,
2013-07-07 02:11:00,68.0,64.0,-100.00,North,10,0.0,0.0,86,-99.99,,,-99.99,,2013-07-07 07:11:00,
2013-07-07 02:22:00,68.0,64.0,-100.00,North,10,0.0,0.0,86,-99.99,,,-99.99,,2013-07-07 07:22:00,
2013-07-07 02:33:00,68.0,64.0,-100.00,North,10,0.0,0.0,86,-99.99,,,-99.99,,2013-07-07 07:33:00,
2013-07-07 02:53:00,68.0,64.0,-100.00,NNE,30,0.0,0.0,89,-99.99,,,-99.99,,2013-07-07 07:53:00,
2013-07-07 03:12:00,67.0,65.0,-100.00,NNE,20,0.0,0.0,91,-99.99,,,-99.99,,2013-07-07 08:12:00,
2013-07-07 03:22:00,67.0,65.0,-100.00,NNE,20,0.0,0.0,91,-99.99,,,-99.99,,2013-07-07 08:22:00,
2013-07-07 03:44:00,67.0,65.0,-100.00,NE,40,0.0,0.0,92,-99.99,,,-99.99,,2013-07-07 08:44:00,
2013-07-07 03:53:00,67.0,65.0,-100.00,NE,40,0.0,0.0,92,-99.99,,,-99.99,,2013-07-07 08:53:00,
2013-07-07 04:12:00,67.0,65.0,-100.00,North,10,0.0,0.0,93,-99.99,,,-99.99,,2013-07-07 09:12:00,
2013-07-07 04:22:00,67.0,65.0,-100.00,North,10,0.0,0.0,93,-99.99,,,-99.99,,2013-07-07 09:22:00,
2013-07-07 04:53:00,66.0,64.0,-100.00,SE,140,0.0,0.0,92,-99.99,,,-99.99,,2013-07-07 09:53:00,
2013-07-07 05:12:00,65.0,64.0,-100.00,ESE,115,0.0,0.0,96,-99.99,,,-99.99,,2013-07-07 10:12:00,
2013-07-07 05:22:00,65.0,64.0,-100.00,ESE,115,0.0,0.0,96,-99.99,,,-99.99,,2013-07-07 10:22:00,
2013-07-07 05:32:00,65.0,64.0,-100.00,ESE,110,0.0,0.0,96,-99.99,,,-99.99,,2013-07-07 10:32:00,
2013-07-07 05:43:00,65.0,64.0,-100.00,East,100,0.0,0.0,96,-99.99,,,-99.99,,2013-07-07 10:43:00,
2013-07-07 05:52:00,65.0,64.0,-100.00,East,100,0.0,0.0,96,-99.99,,,-99.99,,2013-07-07 10:52:00,
2013-07-07 06:11:00,65.0,64.0,-100.00,SE,125,0.0,0.0,96,-99.99,,,-99.99,,2013-07-07 11:11:00,
2013-07-07 06:23:00,65.0,64.0,-100.00,SE,125,0.0,0.0,96,-99.99,,,-99.99,,2013-07-07 11:23:00,
2013-07-07 06:43:00,66.0,64.0,-100.00,ESE,115,0.0,0.0,96,-99.99,,,-99.99,,2013-07-07 11:43:00,
2013-07-07 06:53:00,66.0,64.0,-100.00,ESE,115,0.0,0.0,96,-99.99,,,-99.99,,2013-07-07 11:53:00,
2013-07-07 07:22:00,69.0,66.0,-100.00,North,5,0.0,0.0,89,-99.99,,,-99.99,,2013-07-07 12:22:00,
2013-07-07 07:43:00,70.0,67.0,-100.00,North,10,0.0,0.0,89,-99.99,,,-99.99,,2013-07-07 12:43:00,
2013-07-07 07:52:00,70.0,67.0,-100.00,North,10,0.0,0.0,89,-99.99,,,-99.99,,2013-07-07 12:52:00,
2013-07-07 08:22:00,72.0,68.0,-100.00,NNE,20,0.0,0.0,88,-99.99,,,-99.99,,2013-07-07 13:22:00,
2013-07-07 08:43:00,73.0,68.0,-100.00,NNE,20,0.0,0.0,86,-99.99,,,-99.99,,2013-07-07 13:43:00,
2013-07-07 08:52:00,73.0,68.0,-100.00,NNE,20,0.0,0.0,86,-99.99,,,-99.99,,2013-07-07 13:52:00,
2013-07-07 09:12:00,74.0,69.0,-100.00,NNE,20,0.0,0.0,84,-99.99,,,-99.99,,2013-07-07 14:12:00,
2013-07-07 09:22:00,74.0,69.0,-100.00,NNE,20,0.0,0.0,84,-99.99,,,-99.99,,2013-07-07 14:22:00,
2013-07-07 09:43:00,76.0,70.0,-100.00,NE,45,0.0,0.0,80,-99.99,,,-99.99,,2013-07-07 14:43:00,
2013-07-07 09:53:00,76.0,70.0,-100.00,NE,45,0.0,0.0,80,-99.99,,,-99.99,,2013-07-07 14:53:00,
2013-07-07 10:11:00,78.0,71.0,-100.00,NNE,25,0.0,0.0,79,-99.99,,,-99.99,,2013-07-07 15:11:00,
2013-07-07 10:22:00,78.0,71.0,-100.00,NNE,25,0.0,0.0,79,-99.99,,,-99.99,,2013-07-07 15:22:00,
2013-07-07 10:52:00,80.0,71.0,-100.00,North,10,0.0,0.0,75,-99.99,,,-99.99,,2013-07-07 15:52:00,
2013-07-07 11:11:00,81.0,72.0,-100.00,NE,45,0.0,0.0,73,-99.99,,,-99.99,,2013-07-07 16:11:00,
2013-07-07 11:23:00,81.0,72.0,-100.00,NE,45,0.0,0.0,73,-99.99,,,-99.99,,2013-07-07 16:23:00,
2013-07-07 11:53:00,83.0,72.0,-100.00,North,10,0.0,0.0,70,-99.99,,,-99.99,,2013-07-07 16:53:00,
2013-07-07 12:12:00,84.0,72.0,-100.00,SSE,165,0.0,0.0,67,-99.99,,,-99.99,,2013-07-07 17:12:00,
2013-07-07 12:22:00,84.0,72.0,-100.00,SSE,165,0.0,0.0,67,-99.99,,,-99.99,,2013-07-07 17:22:00,
2013-07-07 12:43:00,86.0,71.0,-100.00,NNE,20,0.0,0.0,62,-99.99,,,-99.99,,2013-07-07 17:43:00,
2013-07-07 12:53:00,86.0,71.0,-100.00,NNE,20,0.0,0.0,62,-99.99,,,-99.99,,2013-07-07 17:53:00,
2013-07-07 13:11:00,86.0,69.0,-100.00,NNE,25,0.0,0.0,57,-99.99,,,-99.99,,2013-07-07 18:11:00,
2013-07-07 13:22:00,86.0,69.0,-100.00,NNE,25,0.0,0.0,57,-99.99,,,-99.99,,2013-07-07 18:22:00,
2013-07-07 13:43:00,87.0,69.0,-100.00,North,5,0.0,0.0,56,-99.99,,,-99.99,,2013-07-07 18:43:00,
2013-07-07 13:53:00,87.0,69.0,-100.00,North,5,0.0,0.0,56,-99.99,,,-99.99,,2013-07-07 18:53:00,
2013-07-07 14:22:00,87.0,69.0,-100.00,North,0,0.0,0.0,56,-99.99,,,-99.99,,2013-07-07 19:22:00,
2013-07-07 14:34:00,87.0,69.0,-100.00,North,0,0.0,0.0,56,-99.99,,,-99.99,,2013-07-07 19:34:00,
2013-07-07 14:54:00,88.0,68.0,-100.00,North,5,0.0,0.0,53,-99.99,,,-99.99,,2013-07-07 19:54:00,
2013-07-07 15:11:00,89.0,69.0,-100.00,NNE,15,0.0,0.0,53,-99.99,,,-99.99,,2013-07-07 20:11:00,
2013-07-07 15:22:00,89.0,69.0,-100.00,NNE,15,0.0,0.0,53,-99.99,,,-99.99,,2013-07-07 20:22:00,
2013-07-07 15:42:00,89.0,69.0,-100.00,NNE,25,0.0,0.0,51,-99.99,,,-99.99,,2013-07-07 20:42:00,
2013-07-07 15:53:00,89.0,69.0,-100.00,NNE,25,0.0,0.0,51,-99.99,,,-99.99,,2013-07-07 20:53:00,
2013-07-07 16:11:00,89.0,69.0,-100.00,NE,45,0.0,0.0,52,-99.99,,,-99.99,,2013-07-07 21:11:00,
2013-07-07 16:22:00,89.0,69.0,-100.00,NE,45,0.0,0.0,52,-99.99,,,-99.99,,2013-07-07 21:22:00,
2013-07-07 16:43:00,89.0,69.0,-100.00,SSE,160,0.0,0.0,52,-99.99,,,-99.99,,2013-07-07 21:43:00,
2013-07-07 16:53:00,89.0,69.0,-100.00,SSE,160,0.0,0.0,52,-99.99,,,-99.99,,2013-07-07 21:53:00,
2013-07-07 17:11:00,87.0,72.0,-100.00,North,10,0.0,0.0,63,-99.99,,,-99.99,,2013-07-07 22:11:00,
2013-07-07 17:22:00,87.0,72.0,-100.00,North,10,0.0,0.0,63,-99.99,,,-99.99,,2013-07-07 22:22:00,
2013-07-07 17:34:00,88.0,71.0,-100.00,North,0,0.0,0.0,59,-99.99,,,-99.99,,2013-07-07 22:34:00,
2013-07-07 17:43:00,88.0,70.0,-100.00,North,5,0.0,0.0,56,-99.99,,,-99.99,,2013-07-07 22:43:00,
2013-07-07 17:54:00,88.0,70.0,-100.00,North,5,0.0,0.0,56,-99.99,,,-99.99,,2013-07-07 22:54:00,
2013-07-07 18:12:00,87.0,69.0,-100.00,North,5,0.0,0.0,54,-99.99,,,-99.99,,2013-07-07 23:12:00,
2013-07-07 18:22:00,87.0,69.0,-100.00,North,5,0.0,0.0,54,-99.99,,,-99.99,,2013-07-07 23:22:00,
2013-07-07 18:33:00,87.0,69.0,-100.00,North,0,0.0,0.0,54,-99.99,,,-99.99,,2013-07-07 23:33:00,
2013-07-07 18:43:00,87.0,69.0,-100.00,North,5,0.0,0.0,56,-99.99,,,-99.99,,2013-07-07 23:43:00,
2013-07-07 18:53:00,87.0,69.0,-100.00,North,5,0.0,0.0,56,-99.99,,,-99.99,,2013-07-07 23:53:00,
2013-07-07 19:22:00,87.0,70.0,-100.00,North,0,0.0,0.0,58,-99.99,,,-99.99,,2013-07-08 00:22:00,
2013-07-07 19:53:00,85.0,71.0,-100.00,North,0,0.0,0.0,62,-99.99,,,-99.99,,2013-07-08 00:53:00,
2013-07-07 20:11:00,84.0,72.0,-100.00,North,10,0.0,0.0,67,-99.99,,,-99.99,,2013-07-08 01:11:00,
2013-07-07 20:22:00,84.0,72.0,-100.00,North,10,0.0,0.0,67,-99.99,,,-99.99,,2013-07-08 01:22:00,
2013-07-07 20:43:00,82.0,72.0,-100.00,North,5,0.0,0.0,70,-99.99,,,-99.99,,2013-07-08 01:43:00,
2013-07-07 20:53:00,82.0,72.0,-100.00,North,5,0.0,0.0,70,-99.99,,,-99.99,,2013-07-08 01:53:00,
2013-07-07 21:11:00,80.0,72.0,-100.00,North,10,0.0,0.0,75,-99.99,,,-99.99,,2013-07-08 02:11:00,
2013-07-07 21:22:00,80.0,72.0,-100.00,North,10,0.0,0.0,75,-99.99,,,-99.99,,2013-07-08 02:22:00,
2013-07-07 21:42:00,79.0,71.0,-100.00,NNE,15,0.0,0.0,76,-99.99,,,-99.99,,2013-07-08 02:42:00,
2013-07-07 21:52:00,79.0,71.0,-100.00,NNE,15,0.0,0.0,76,-99.99,,,-99.99,,2013-07-08 02:52:00,
2013-07-07 22:12:00,79.0,71.0,-100.00,NNE,15,0.0,0.0,75,-99.99,,,-99.99,,2013-07-08 03:12:00,
2013-07-07 22:23:00,79.0,71.0,-100.00,NNE,15,0.0,0.0,75,-99.99,,,-99.99,,2013-07-08 03:23:00,
2013-07-07 22:42:00,78.0,71.0,-100.00,NNE,15,0.0,0.0,78,-99.99,,,-99.99,,2013-07-08 03:42:00,
2013-07-07 22:52:00,78.0,71.0,-100.00,NNE,15,0.0,0.0,78,-99.99,,,-99.99,,2013-07-08 03:52:00,
2013-07-07 23:12:00,76.0,71.0,-100.00,North,10,0.0,0.0,83,-99.99,,,-99.99,,2013-07-08 04:12:00,
2013-07-07 23:22:00,76.0,71.0,-100.00,North,10,0.0,0.0,83,-99.99,,,-99.99,,2013-07-08 04:22:00,
2013-07-07 23:42:00,75.0,72.0,-100.00,ESE,115,0.0,0.0,89,-99.99,,,-99.99,,2013-07-08 04:42:00,
2013-07-07 23:53:00,75.0,72.0,-100.00,ESE,115,0.0,0.0,89,-99.99,,,-99.99,,2013-07-08 04:53:00,